Time;durP1;ratioP1;P1;durP2;ratioP2;P2;SDS_P1;SDS_P2;PMS_P1;PMS_P2;Temp;Humidity;BMP_temperature;BMP_pressure;BME280_temperature;BME280_humidity;BME280_pressure;Samples;Min_cycle;Max_cycle;Signal;HPM_P1;HPM_P2
2022/08/17 00:00:48;;;;;;;7.55;5.35;;;;;;;27.95;60.83;100797.31;1604890;89;21001;-53
2022/08/17 00:03:27;;;;;;;6.28;5.28;;;;;;;27.96;60.92;100804.40;1604453;89;21056;-52
2022/08/17 00:06:06;;;;;;;7.35;5.35;;;;;;;27.95;60.93;100795.49;1598554;89;21073;-52
2022/08/17 00:08:40;;;;;;;5.30;4.80;;;;;;;28.01;60.80;100799.45;1595922;89;21065;-51
2022/08/17 00:11:12;;;;;;;6.85;5.10;;;;;;;27.97;60.85;100790.02;1580716;90;21026;-50
2022/08/17 00:13:46;;;;;;;9.60;5.03;;;;;;;27.96;60.84;100787.02;1585376;90;21033;-52
2022/08/17 00:16:18;;;;;;;6.00;5.40;;;;;;;27.97;60.81;100785.52;1573899;90;21562;-52
2022/08/17 00:18:46;;;;;;;6.10;5.45;;;;;;;27.98;60.71;100787.23;1468312;97;21167;-54
2022/08/17 00:21:14;;;;;;;8.05;4.85;;;;;;;27.99;60.71;100780.02;1446857;99;21188;-50
2022/08/17 00:23:42;;;;;;;6.80;5.05;;;;;;;27.99;60.63;100777.34;1446308;97;21701;-50
2022/08/17 00:26:09;;;;;;;6.47;4.85;;;;;;;28.00;60.47;100776.37;1456384;97;21698;-50
2022/08/17 00:28:37;;;;;;;5.55;5.05;;;;;;;28.00;60.38;100776.37;1454342;98;21134;-51
2022/08/17 00:31:06;;;;;;;5.95;4.85;;;;;;;27.99;60.33;100776.02;1467999;97;21165;-52
2022/08/17 00:33:34;;;;;;;5.62;4.40;;;;;;;27.99;60.14;100772.84;1464064;97;21046;-52
2022/08/17 00:36:01;;;;;;;5.05;4.60;;;;;;;28.00;59.96;100773.70;1456067;97;21106;-53
2022/08/17 00:38:28;;;;;;;5.83;4.87;;;;;;;28.00;59.74;100771.88;1453923;97;21629;-50
2022/08/17 00:40:59;;;;;;;5.55;4.83;;;;;;;27.99;59.73;100774.67;1465303;97;21074;-49
2022/08/17 00:43:35;;;;;;;;;;;;;;;27.99;59.66;100782.21;1463812;97;21070;-50
2022/08/17 00:46:09;;;;;;;5.35;4.85;;;;;;;28.00;59.59;100779.05;1465582;97;20127;-49
2022/08/17 00:48:37;;;;;;;7.65;5.22;;;;;;;27.99;59.68;100774.67;1461523;97;21054;-51
2022/08/17 00:51:14;;;;;;;5.65;5.03;;;;;;;27.97;59.77;100779.33;1468545;95;21155;-53
2022/08/17 00:53:43;;;;;;;5.42;4.80;;;;;;;27.96;59.81;100774.98;1527709;92;21605;-50
2022/08/17 00:56:14;;;;;;;5.20;4.70;;;;;;;27.96;59.76;100783.00;1542965;91;21059;-50
2022/08/17 00:58:41;;;;;;;5.47;4.60;;;;;;;27.95;59.69;100774.58;1550926;91;21617;-50
2022/08/17 01:01:08;;;;;;;6.83;5.10;;;;;;;27.93;59.63;100769.88;1549566;91;21232;-51
2022/08/17 01:03:35;;;;;;;6.03;4.83;;;;;;;27.91;59.65;100769.17;1548778;91;21107;-50
2022/08/17 01:06:03;;;;;;;5.35;4.85;;;;;;;27.91;59.62;100767.34;1547273;92;21087;-58
2022/08/17 01:08:30;;;;;;;7.20;5.12;;;;;;;27.92;59.56;100765.52;1577550;89;21089;-51
2022/08/17 01:11:01;;;;;;;5.00;4.45;;;;;;;27.90;59.45;100760.30;1594510;88;21038;-53
2022/08/17 01:13:39;;;;;;;7.58;4.83;;;;;;;27.91;59.21;100762.00;1592889;88;21022;-53
2022/08/17 01:16:27;;;;;;;5.60;5.00;;;;;;;27.92;58.98;100760.17;1682947;81;21037;-50
2022/08/17 01:19:02;;;;;;;6.22;4.62;;;;;;;27.92;58.88;100756.16;1728404;81;21011;-49
2022/08/17 01:22:00;;;;;;;4.92;4.17;;;;;;;27.91;58.73;100749.11;1703007;82;21030;-49
2022/08/17 01:24:26;;;;;;;5.50;4.72;;;;;;;27.90;58.63;100752.79;1684400;83;21072;-50
2022/08/17 01:26:53;;;;;;;5.08;4.65;;;;;;;27.89;58.64;100749.75;1674705;83;21061;-55
2022/08/17 01:29:19;;;;;;;4.90;4.40;;;;;;;27.88;58.59;100753.43;1686590;84;21032;-50
2022/08/17 01:31:50;;;;;;;8.05;4.92;;;;;;;27.86;58.52;100751.39;1685757;83;21088;-52
2022/08/17 01:34:17;;;;;;;6.50;4.75;;;;;;;27.86;58.52;100760.75;1684580;83;21049;-52
2022/08/17 01:36:45;;;;;;;5.67;5.05;;;;;;;27.85;58.60;100765.73;1683927;83;21065;-55
2022/08/17 01:39:29;;;;;;;7.62;4.60;;;;;;;27.84;58.84;100760.05;1684378;83;21014;-51
2022/08/17 01:42:01;;;;;;;5.70;4.90;;;;;;;27.81;58.91;100760.33;1683144;83;21598;-55
2022/08/17 01:44:28;;;;;;;5.33;4.83;;;;;;;27.82;59.00;100764.70;1628810;87;21565;-50
2022/08/17 01:46:55;;;;;;;6.40;5.12;;;;;;;27.81;59.15;100764.34;1628963;87;21082;-50
2022/08/17 01:49:22;;;;;;;7.42;4.50;;;;;;;27.79;59.19;100763.15;1627543;87;21100;-50
2022/08/17 01:51:48;;;;;;;10.90;5.00;;;;;;;27.79;59.18;100769.83;1632555;86;21049;-50
2022/08/17 01:54:17;;;;;;;9.68;5.35;;;;;;;27.80;59.32;100770.69;1632737;86;21045;-50
2022/08/17 01:56:46;;;;;;;5.25;4.67;;;;;;;27.79;59.36;100767.64;1624628;87;21573;-51
2022/08/17 01:59:14;;;;;;;5.30;4.80;;;;;;;27.78;59.45;100764.64;1628821;87;21049;-53
2022/08/17 02:01:42;;;;;;;5.83;4.80;;;;;;;27.78;59.49;100765.45;1628753;88;21063;-54
2022/08/17 02:04:09;;;;;;;5.70;4.90;;;;;;;27.78;59.57;100753.94;1628922;87;21611;-50
2022/08/17 02:06:38;;;;;;;6.47;5.10;;;;;;;27.78;59.55;100757.95;1628658;87;21062;-50
2022/08/17 02:09:06;;;;;;;6.20;4.37;;;;;;;27.77;59.62;100764.27;1628839;87;21057;-52
2022/08/17 02:11:34;;;;;;;5.75;5.08;;;;;;;27.77;59.66;100762.94;1628657;87;21129;-50
2022/08/17 02:14:01;;;;;;;8.83;4.90;;;;;;;27.76;59.72;100757.25;1628822;87;21542;-50
2022/08/17 02:16:28;;;;;;;7.30;4.80;;;;;;;27.76;59.79;100764.76;1628866;87;21065;-50
2022/08/17 02:18:55;;;;;;;6.33;5.72;;;;;;;27.76;59.88;100762.60;1630593;85;21583;-50
2022/08/17 02:21:22;;;;;;;6.28;5.75;;;;;;;27.75;60.07;100766.25;1694028;81;21049;-50
2022/08/17 02:23:49;;;;;;;7.45;6.60;;;;;;;27.73;60.29;100768.22;1732686;81;21471;-50
2022/08/17 02:26:16;;;;;;;7.10;6.40;;;;;;;27.70;60.20;100769.34;1700844;84;21074;-53
2022/08/17 02:28:42;;;;;;;10.23;7.42;;;;;;;27.67;60.06;100766.12;1704945;84;21070;-50
2022/08/17 02:31:10;;;;;;;8.28;7.42;;;;;;;27.63;59.97;100764.72;1699690;84;21062;-52
2022/08/17 02:33:37;;;;;;;8.30;6.97;;;;;;;27.60;59.95;100763.64;1731911;82;21003;-50
2022/08/17 02:36:05;;;;;;;8.05;7.33;;;;;;;27.56;59.97;100765.77;1738212;81;21023;-50
2022/08/17 02:38:32;;;;;;;8.45;7.60;;;;;;;27.54;60.06;100760.20;1736143;81;21007;-50
2022/08/17 02:40:58;;;;;;;8.25;7.28;;;;;;;27.52;60.15;100757.68;1733318;81;21027;-53
2022/08/17 02:43:27;;;;;;;8.70;7.03;;;;;;;27.51;60.23;100758.69;1733462;81;21054;-48
2022/08/17 02:45:54;;;;;;;9.08;7.75;;;;;;;27.50;60.40;100761.47;1730956;81;21039;-49
2022/08/17 02:48:21;;;;;;;7.97;7.28;;;;;;;27.50;60.69;100762.33;1733738;81;21031;-52
2022/08/17 02:50:48;;;;;;;8.78;7.65;;;;;;;27.50;60.94;100764.14;1736601;81;21039;-50
2022/08/17 02:53:15;;;;;;;7.92;7.15;;;;;;;27.50;61.13;100761.47;1736651;81;21478;-49
2022/08/17 02:55:42;;;;;;;8.60;7.40;;;;;;;27.51;61.29;100763.17;1699002;84;21149;-51
2022/08/17 02:58:09;;;;;;;7.22;6.62;;;;;;;27.51;61.45;100761.84;1697608;84;21023;-55
2022/08/17 03:00:40;;;;;;;7.67;6.85;;;;;;;27.52;61.56;100763.51;1699812;84;20986;-50
2022/08/17 03:03:07;;;;;;;8.27;7.57;;;;;;;27.52;61.72;100759.50;1697281;83;21014;-54
2022/08/17 03:05:35;;;;;;;8.38;7.30;;;;;;;27.52;61.77;100768.38;1703071;83;21038;-49
2022/08/17 03:08:04;;;;;;;8.98;7.83;;;;;;;27.54;61.88;100768.22;1700067;84;21018;-50
2022/08/17 03:10:31;;;;;;;8.13;7.33;;;;;;;27.55;61.96;100767.25;1698139;83;21471;-54
2022/08/17 03:12:58;;;;;;;8.23;7.08;;;;;;;27.55;62.07;100773.94;1732491;81;21016;-52
2022/08/17 03:15:30;;;;;;;7.90;7.20;;;;;;;27.56;62.10;100773.78;1726096;81;21019;-52
2022/08/17 03:17:58;;;;;;;7.33;6.73;;;;;;;27.56;62.18;100776.94;1700668;84;21030;-50
2022/08/17 03:20:25;;;;;;;7.67;6.87;;;;;;;27.56;62.20;100774.27;1699409;84;21570;-50
2022/08/17 03:22:54;;;;;;;7.58;6.87;;;;;;;27.59;62.11;100772.66;1698619;83;21570;-50
2022/08/17 03:25:28;;;;;;;7.30;6.70;;;;;;;27.58;62.18;100781.66;1703238;84;21052;-52
2022/08/17 03:27:55;;;;;;;7.20;6.60;;;;;;;27.59;62.20;100780.20;1735074;81;20991;-53
2022/08/17 03:30:23;;;;;;;8.38;6.60;;;;;;;27.65;62.04;100782.31;1735223;81;21011;-49
2022/08/17 03:32:53;;;;;;;7.10;6.45;;;;;;;27.67;62.03;100779.48;1734146;81;21023;-50
2022/08/17 03:35:23;;;;;;;6.05;5.45;;;;;;;27.69;61.88;100782.86;1697884;84;21435;-49
2022/08/17 03:37:50;;;;;;;6.25;5.75;;;;;;;27.70;61.74;100784.56;1698253;83;21525;-50
2022/08/17 03:40:17;;;;;;;6.65;6.03;;;;;;;27.68;61.71;100783.83;1697511;83;21061;-52
2022/08/17 03:42:44;;;;;;;8.55;7.22;;;;;;;27.70;61.63;100780.55;1698272;83;21038;-50
2022/08/17 03:45:15;;;;;;;8.40;7.60;;;;;;;27.69;61.51;100786.38;1696181;83;21542;-53
2022/08/17 03:58:47;;;;;;;8.65;7.80;;;;;;;27.58;61.44;100791.02;1694554;83;21100;-50
2022/08/17 04:01:14;;;;;;;8.30;7.60;;;;;;;27.57;61.51;100785.33;1694780;84;21526;-50
2022/08/17 04:03:41;;;;;;;8.88;7.97;;;;;;;27.61;61.67;100792.08;1692957;83;21027;-49
2022/08/17 04:06:08;;;;;;;8.63;7.72;;;;;;;27.62;61.86;100791.08;1693320;84;21082;-52
2022/08/17 04:08:35;;;;;;;8.08;7.37;;;;;;;27.65;62.00;100797.02;1693969;84;21132;-49
2022/08/17 04:11:01;;;;;;;8.93;8.13;;;;;;;27.55;62.55;100787.30;1694756;84;21022;-55
2022/08/17 04:13:28;;;;;;;9.68;7.67;;;;;;;27.67;62.50;100796.86;1694632;84;21038;-55
2022/08/17 04:15:58;;;;;;;9.05;8.15;;;;;;;27.69;62.59;100796.22;1684751;83;21019;-50
2022/08/17 04:18:24;;;;;;;9.30;8.50;;;;;;;27.72;62.61;100797.30;1688687;84;21127;-50
2022/08/17 04:20:52;;;;;;;8.85;8.00;;;;;;;27.72;62.65;100791.95;1693832;83;21570;-52
2022/08/17 04:23:18;;;;;;;8.48;7.67;;;;;;;27.75;62.70;100799.19;1694618;83;21102;-55
2022/08/17 04:25:48;;;;;;;8.25;7.55;;;;;;;27.79;62.68;100802.41;1690705;84;21098;-56
2022/08/17 04:28:16;;;;;;;8.38;7.67;;;;;;;27.81;62.56;100803.11;1694872;83;21023;-50
2022/08/17 04:30:43;;;;;;;9.23;8.30;;;;;;;27.82;62.51;100800.80;1684131;84;21003;-51
2022/08/17 04:33:17;;;;;;;13.38;8.60;;;;;;;27.85;62.45;100801.84;1692765;83;21058;-50
2022/08/17 04:35:47;;;;;;;8.43;7.30;;;;;;;27.83;62.51;100804.66;1621830;87;21057;-50
2022/08/17 04:38:17;;;;;;;8.08;7.22;;;;;;;27.86;62.31;100801.69;1627577;87;21106;-56
2022/08/17 04:43:30;;;;;;;8.48;7.62;;;;;;;27.85;61.84;100788.47;1627501;87;21085;-56
2022/08/17 04:45:59;;;;;;;8.20;7.50;;;;;;;27.93;61.29;100795.28;1626460;87;21058;-52
2022/08/17 04:48:30;;;;;;;8.78;7.87;;;;;;;27.94;60.96;100791.63;1624535;87;21086;-53
2022/08/17 04:50:57;;;;;;;10.15;8.20;;;;;;;27.97;60.75;100798.05;1594634;89;21546;-55
2022/08/17 04:53:24;;;;;;;8.18;7.45;;;;;;;27.99;60.64;100792.06;1651376;86;21081;-52
2022/08/17 04:55:52;;;;;;;7.95;7.25;;;;;;;27.99;60.57;100793.40;1656358;86;22423;-50
2022/08/17 04:58:19;;;;;;;8.70;7.83;;;;;;;27.99;60.39;100793.40;1656808;86;21098;-52
2022/08/17 05:00:45;;;;;;;9.05;8.25;;;;;;;28.00;60.38;100800.45;1657529;86;21035;-55
2022/08/17 05:03:12;;;;;;;10.65;9.38;;;;;;;28.00;60.55;100799.11;1658315;85;21018;-50
2022/08/17 05:05:50;;;;;;;9.50;8.60;;;;;;;28.01;60.65;100798.11;1657904;86;21610;-56
2022/08/17 05:08:18;;;;;;;8.35;7.65;;;;;;;28.05;60.84;100806.20;1657828;86;21518;-52
2022/08/17 05:10:45;;;;;;;8.88;7.85;;;;;;;28.07;60.84;100809.57;1655275;86;21056;-49
2022/08/17 05:13:16;;;;;;;7.70;7.00;;;;;;;28.09;60.81;100804.92;1655336;86;21569;-50
2022/08/17 05:15:44;;;;;;;;;;;;;;;28.11;60.76;100801.61;1614843;88;21112;-56
2022/08/17 05:18:10;;;;;;;9.58;8.78;;;;;;;28.15;60.79;100805.19;1612294;88;20148;-51
2022/08/17 05:20:38;;;;;;;7.95;7.25;;;;;;;28.13;60.76;100812.52;1611882;89;21005;-51
2022/08/17 05:23:08;;;;;;;7.33;6.72;;;;;;;28.17;60.66;100804.55;1608670;89;21049;-50
2022/08/17 05:25:42;;;;;;;6.85;6.25;;;;;;;28.20;60.49;100802.09;1563427;91;21088;-51
2022/08/17 05:28:09;;;;;;;6.92;5.90;;;;;;;28.24;60.06;100804.83;1546337;92;21073;-52
2022/08/17 05:30:37;;;;;;;7.87;6.15;;;;;;;28.25;59.62;100805.19;1544839;92;21549;-53
2022/08/17 05:33:08;;;;;;;8.28;5.80;;;;;;;28.26;59.32;100801.51;1512715;93;21112;-50
2022/08/17 05:35:38;;;;;;;6.25;5.65;;;;;;;28.30;59.28;100802.91;1507517;95;21085;-50
2022/08/17 05:38:06;;;;;;;6.83;5.72;;;;;;;28.36;59.10;100798.30;1522689;93;21090;-54
2022/08/17 05:40:35;;;;;;;5.95;5.25;;;;;;;28.40;58.92;100807.73;1535624;93;21563;-52
2022/08/17 05:43:11;;;;;;;5.72;4.85;;;;;;;28.45;58.61;100813.50;1535640;93;21143;-50
2022/08/17 05:46:07;;;;;;;6.50;5.40;;;;;;;28.49;58.54;100811.37;1545498;93;21544;-50
2022/08/17 05:48:39;;;;;;;6.75;5.58;;;;;;;28.56;58.50;100815.19;1505289;94;21085;-54
2022/08/17 05:51:11;;;;;;;8.43;5.55;;;;;;;28.64;58.30;100809.94;1542116;92;21085;-52
2022/08/17 05:54:28;;;;;;;6.62;4.97;;;;;;;28.68;58.16;100805.48;1529246;93;21102;-56
2022/08/17 05:57:19;;;;;;;7.12;5.28;;;;;;;28.75;58.03;100799.87;1542956;92;21148;-53
2022/08/17 06:00:15;;;;;;;5.97;5.00;;;;;;;28.85;57.60;100804.68;1511998;95;21140;-53
2022/08/17 06:03:26;;;;;;;6.33;5.45;;;;;;;28.97;56.99;100798.12;1476150;96;21141;-51
2022/08/17 06:06:20;;;;;;;7.47;5.10;;;;;;;29.05;56.58;100801.91;1531761;93;21072;-53
2022/08/17 06:09:18;;;;;;;5.62;5.00;;;;;;;29.12;56.38;100798.98;1516992;94;21073;-53
2022/08/17 06:11:59;;;;;;;5.80;4.72;;;;;;;29.20;56.13;100798.61;1542088;88;21066;-54
2022/08/17 06:14:32;;;;;;;;;;;;;;;29.34;56.00;100805.27;1665050;84;21085;-51
2022/08/17 06:17:03;;;;;;;7.97;5.58;;;;;;;29.53;55.79;100811.31;1661115;85;20118;-53
2022/08/17 06:19:45;;;;;;;5.92;5.33;;;;;;;29.70;55.35;100814.98;1638996;86;21570;-54
2022/08/17 06:22:14;;;;;;;5.80;5.30;;;;;;;29.83;55.04;100815.48;1662576;84;21567;-50
2022/08/17 06:24:55;;;;;;;6.00;5.37;;;;;;;29.92;54.71;100815.90;1696598;84;21543;-57
2022/08/17 06:27:49;;;;;;;5.78;5.10;;;;;;;29.97;54.58;100816.26;1690321;84;20998;-55
2022/08/17 06:30:27;;;;;;;6.53;4.55;;;;;;;30.01;54.34;100809.58;1701200;84;21141;-51
2022/08/17 06:33:00;;;;;;;4.80;4.17;;;;;;;30.05;53.91;100808.27;1674212;84;21569;-53
2022/08/17 06:35:38;;;;;;;5.17;4.47;;;;;;;30.08;53.88;100806.63;1698929;84;21090;-50
2022/08/17 06:38:42;;;;;;;7.15;5.40;;;;;;;30.12;54.00;100801.28;1649422;86;21093;-50
2022/08/17 06:41:26;;;;;;;5.22;4.72;;;;;;;30.17;53.58;100797.61;1649671;86;21069;-51
2022/08/17 06:44:14;;;;;;;6.97;5.00;;;;;;;30.21;53.47;100793.61;1619916;87;21106;-50
2022/08/17 06:46:47;;;;;;;5.08;4.53;;;;;;;30.25;53.50;100797.66;1618902;88;21557;-51
2022/08/17 06:49:27;;;;;;;;;;;;;;;30.33;53.36;100804.48;1617269;88;21046;-50
2022/08/17 06:52:14;;;;;;;6.65;4.85;;;;;;;30.41;53.07;100807.21;1618930;88;20112;-51
2022/08/17 06:55:08;;;;;;;5.75;5.15;;;;;;;30.51;52.84;100811.96;1618809;88;21065;-54
2022/08/17 06:57:38;;;;;;;5.72;4.40;;;;;;;30.60;52.71;100808.83;1612140;88;21074;-52
2022/08/17 07:00:12;;;;;;;5.40;4.85;;;;;;;30.71;52.52;100807.70;1604015;88;21102;-51
2022/08/17 07:03:09;;;;;;;5.95;4.33;;;;;;;30.79;52.20;100814.45;1593442;88;21087;-56
2022/08/17 07:06:02;;;;;;;4.85;4.45;;;;;;;30.85;52.10;100821.89;1612773;88;21042;-51
2022/08/17 07:09:11;;;;;;;7.00;4.37;;;;;;;30.90;52.06;100816.86;1609826;88;21562;-52
2022/08/17 07:11:49;;;;;;;5.15;4.62;;;;;;;30.94;51.86;100816.87;1607548;88;21143;-51
2022/08/17 07:14:38;;;;;;;6.17;4.60;;;;;;;30.99;51.79;100821.27;1594605;89;21036;-50
2022/08/17 07:17:12;;;;;;;7.30;4.87;;;;;;;31.03;51.84;100818.59;1591982;89;21582;-53
2022/08/17 07:19:41;;;;;;;5.37;4.80;;;;;;;31.09;51.87;100813.91;1565871;91;21531;-51
2022/08/17 07:22:33;;;;;;;6.25;5.05;;;;;;;31.15;51.66;100817.28;1567122;91;21565;-51
2022/08/17 07:25:04;;;;;;;6.72;5.65;;;;;;;31.22;51.59;100819.67;1622108;87;21073;-52
2022/08/17 07:27:34;;;;;;;;;;;;;;;31.33;51.55;100822.03;1627179;87;21098;-51
2022/08/17 07:30:13;;;;;;;6.30;5.42;;;;;;;31.45;51.36;100826.11;1624014;87;20108;-51
2022/08/17 07:32:53;;;;;;;5.50;5.00;;;;;;;31.57;51.06;100816.75;1624783;87;21022;-50
2022/08/17 07:35:38;;;;;;;6.17;5.00;;;;;;;31.71;50.43;100820.61;1643580;86;21133;-50
2022/08/17 07:38:21;;;;;;;7.55;5.75;;;;;;;31.83;50.19;100819.27;1649034;86;21042;-51
2022/08/17 07:41:01;;;;;;;6.92;5.80;;;;;;;31.92;49.96;100821.77;1613437;87;21582;-49
2022/08/17 07:43:44;;;;;;;6.28;5.67;;;;;;;31.97;49.70;100821.30;1615235;87;21061;-51
2022/08/17 07:49:14;;;;;;;7.37;6.20;;;;;;;31.98;49.63;100818.44;1609534;88;21550;-53
2022/08/17 07:51:49;;;;;;;6.50;5.80;;;;;;;31.97;49.42;100816.77;1604481;88;21040;-51
2022/08/17 07:54:24;;;;;;;6.22;5.65;;;;;;;31.95;49.72;100821.98;1672715;84;21039;-52
2022/08/17 07:57:13;;;;;;;6.35;5.80;;;;;;;31.93;49.74;100817.27;1646245;86;21120;-53
2022/08/17 08:00:02;;;;;;;6.35;5.75;;;;;;;31.93;49.93;100820.81;1634492;88;21045;-50
2022/08/17 08:02:44;;;;;;;6.37;5.80;;;;;;;31.92;49.95;100813.70;1659292;86;21066;-55
2022/08/17 08:05:26;;;;;;;7.50;6.22;;;;;;;31.94;49.92;100810.36;1660206;85;21518;-51
2022/08/17 08:08:00;;;;;;;6.12;5.55;;;;;;;31.95;49.64;100809.87;1627154;88;21045;-54
2022/08/17 08:10:42;;;;;;;6.20;5.58;;;;;;;31.96;49.60;100808.88;1601199;87;21026;-57
2022/08/17 08:13:23;;;;;;;6.85;5.95;;;;;;;31.98;49.30;100813.05;1655515;85;21149;-51
2022/08/17 08:15:56;;;;;;;7.12;5.65;;;;;;;31.99;49.21;100808.52;1655455;85;21050;-53
2022/08/17 08:21:12;;;;;;;6.83;6.22;;;;;;;31.99;48.74;100808.02;1580658;90;21056;-51
2022/08/17 08:23:53;;;;;;;6.72;6.08;;;;;;;31.97;48.78;100803.31;1575633;89;21605;-53
2022/08/17 08:26:28;;;;;;;7.90;6.30;;;;;;;31.96;49.21;100808.34;1535109;92;21077;-55
2022/08/17 08:29:28;;;;;;;7.80;6.53;;;;;;;31.96;49.16;100811.03;1533566;93;21120;-50
2022/08/17 08:32:19;;;;;;;6.75;6.05;;;;;;;31.97;49.28;100809.19;1534971;92;21108;-50
2022/08/17 08:35:11;;;;;;;7.05;6.35;;;;;;;31.98;49.21;100814.39;1535420;92;21072;-51
2022/08/17 08:38:25;;;;;;;7.87;5.87;;;;;;;31.98;49.27;100813.05;1535221;92;21080;-51
2022/08/17 08:41:32;;;;;;;7.00;6.40;;;;;;;31.99;49.65;100821.48;1535198;92;21085;-50
2022/08/17 08:44:16;;;;;;;6.67;5.65;;;;;;;32.00;49.66;100823.17;1535010;93;21092;-50
2022/08/17 08:46:51;;;;;;;6.30;5.70;;;;;;;32.05;49.26;100821.30;1535176;92;21052;-51
2022/08/17 08:49:32;;;;;;;7.22;5.90;;;;;;;32.08;49.76;100818.28;1535113;92;21045;-50
2022/08/17 08:52:01;;;;;;;6.97;6.17;;;;;;;32.14;49.83;100822.13;1535450;92;21080;-54
2022/08/17 08:55:27;;;;;;;6.10;5.47;;;;;;;32.19;49.60;100817.09;1535067;92;21060;-52
2022/08/17 08:58:02;;;;;;;8.18;5.20;;;;;;;32.23;49.65;100817.08;1488655;96;21125;-50
2022/08/17 09:00:28;;;;;;;7.70;5.40;;;;;;;32.28;49.61;100827.66;1438117;98;21585;-53
2022/08/17 09:03:21;;;;;;;6.80;5.25;;;;;;;32.29;49.46;100828.02;1428202;98;21149;-57
2022/08/17 09:06:16;;;;;;;8.25;5.75;;;;;;;32.29;49.40;100826.67;1440916;97;21101;-50
2022/08/17 09:09:03;;;;;;;6.20;5.37;;;;;;;32.30;49.48;100822.09;1425109;98;21088;-54
2022/08/17 09:12:02;;;;;;;6.37;5.83;;;;;;;32.32;49.48;100828.16;1414041;100;21120;-49
2022/08/17 09:14:36;;;;;;;5.80;5.20;;;;;;;32.34;49.32;100828.83;1424911;98;21121;-51
2022/08/17 09:17:20;;;;;;;6.45;5.80;;;;;;;32.37;49.22;100831.19;1392562;102;21127;-51
2022/08/17 09:19:57;;;;;;;6.45;5.25;;;;;;;32.41;49.37;100821.25;1373647;104;21127;-53
2022/08/17 09:22:38;;;;;;;5.92;5.40;;;;;;;32.47;49.07;100815.70;1389620;102;21151;-52
2022/08/17 09:25:11;;;;;;;;;;;;;;;32.50;48.82;100815.38;1433182;97;21128;-54
2022/08/17 09:27:58;;;;;;;6.55;5.08;;;;;;;32.54;48.89;100817.52;1450286;97;20144;-53
2022/08/17 09:30:26;;;;;;;6.58;6.00;;;;;;;32.58;48.74;100819.39;1478208;97;21089;-50
2022/08/17 09:33:00;;;;;;;6.45;5.78;;;;;;;32.62;48.46;100824.76;1471911;97;21144;-52
2022/08/17 09:35:38;;;;;;;6.62;6.00;;;;;;;32.66;48.75;100818.02;1470754;95;21103;-53
2022/08/17 09:38:29;;;;;;;6.03;5.40;;;;;;;32.70;48.64;100822.03;1468524;97;21108;-54
2022/08/17 09:41:09;;;;;;;5.70;5.20;;;;;;;32.75;48.37;100823.19;1479554;97;21119;-50
2022/08/17 09:43:47;;;;;;;5.80;5.15;;;;;;;32.79;48.22;100816.43;1448413;98;21139;-50
2022/08/17 09:46:37;;;;;;;5.45;4.87;;;;;;;32.83;48.30;100816.91;1439669;98;21119;-54
2022/08/17 09:49:22;;;;;;;5.93;5.20;;;;;;;32.85;47.55;100818.42;1398391;102;21202;-53
2022/08/17 09:51:56;;;;;;;5.42;4.80;;;;;;;32.83;47.75;100821.80;1405948;100;21162;-55
2022/08/17 09:54:28;;;;;;;7.42;5.90;;;;;;;32.83;47.70;100816.91;1422748;100;21145;-53
2022/08/17 09:57:24;;;;;;;6.08;5.37;;;;;;;32.83;47.63;100820.45;1433413;97;21114;-52
2022/08/17 10:00:12;;;;;;;6.65;5.78;;;;;;;32.83;48.00;100814.22;1453607;97;21144;-52
2022/08/17 10:03:03;;;;;;;6.53;5.40;;;;;;;32.82;47.92;100808.01;1448154;97;21201;-56
2022/08/17 10:08:34;;;;;;;6.00;4.87;;;;;;;32.83;47.69;100814.22;1402307;102;21128;-53
2022/08/17 10:14:52;;;;;;;6.90;5.25;;;;;;;32.96;47.48;100814.50;1399830;102;21223;-54
2022/08/17 10:17:54;;;;;;;5.87;5.20;;;;;;;32.99;47.45;100818.24;1397633;103;21186;-56
2022/08/17 10:20:30;;;;;;;8.25;6.67;;;;;;;32.98;47.26;100818.39;1405613;100;21674;-53
2022/08/17 10:26:23;;;;;;;5.72;5.15;;;;;;;33.08;47.44;100815.00;1455482;98;21115;-52
2022/08/17 10:29:05;;;;;;;6.00;5.33;;;;;;;33.14;47.38;100819.69;1450758;97;21076;-53
2022/08/17 10:31:39;;;;;;;5.75;5.25;;;;;;;33.18;47.47;100812.39;1407685;101;21192;-55
2022/08/17 10:34:39;;;;;;;5.33;4.75;;;;;;;33.22;47.00;100812.36;1406882;101;21123;-51
2022/08/17 10:37:27;;;;;;;5.85;5.17;;;;;;;33.25;46.87;100814.72;1407560;100;21127;-52
2022/08/17 10:40:23;;;;;;;6.45;5.62;;;;;;;33.29;46.67;100815.19;1384313;102;21215;-52
2022/08/17 10:43:23;;;;;;;6.33;5.72;;;;;;;33.30;46.33;100810.99;1407447;100;21119;-50
2022/08/17 10:46:00;;;;;;;6.03;5.40;;;;;;;33.34;46.27;100807.42;1420318;98;21153;-50
2022/08/17 10:48:35;;;;;;;5.75;5.15;;;;;;;33.33;46.03;100802.53;1426924;99;21652;-55
2022/08/17 10:51:09;;;;;;;5.62;5.12;;;;;;;33.29;46.04;100802.55;1453883;97;21172;-57
2022/08/17 10:53:44;;;;;;;6.05;4.92;;;;;;;33.25;46.22;100802.58;1504261;94;21096;-51
2022/08/17 10:56:17;;;;;;;5.55;5.05;;;;;;;33.22;46.46;100801.58;1507198;94;21572;-50
2022/08/17 10:58:57;;;;;;;5.50;5.10;;;;;;;33.19;46.25;100801.95;1524228;92;21141;-52
2022/08/17 11:01:42;;;;;;;5.90;5.30;;;;;;;33.17;46.46;100798.59;1535789;92;21105;-50
2022/08/17 11:04:25;;;;;;;5.97;5.40;;;;;;;33.16;46.65;100798.23;1543679;87;21120;-54
2022/08/17 11:07:33;;;;;;;5.62;5.12;;;;;;;33.14;46.43;100793.53;1646543;85;21042;-52
2022/08/17 11:10:06;;;;;;;5.40;4.90;;;;;;;33.13;46.51;100791.88;1648262;85;21022;-53
2022/08/17 11:13:06;;;;;;;5.47;4.85;;;;;;;33.13;47.01;100785.13;1650711;85;21605;-53
2022/08/17 11:16:20;;;;;;;5.87;5.28;;;;;;;33.19;46.94;100787.11;1651007;85;21041;-53
2022/08/17 11:19:15;;;;;;;5.90;5.30;;;;;;;33.16;47.01;100781.25;1655906;85;21068;-51
2022/08/17 11:22:05;;;;;;;5.78;5.25;;;;;;;33.23;47.04;100781.70;1655268;86;21487;-51
2022/08/17 11:24:41;;;;;;;;;;;;;;;33.26;46.94;100785.36;1651208;85;21191;-54
2022/08/17 11:27:25;;;;;;;6.03;5.22;;;;;;;33.27;46.61;100780.31;1654513;85;20139;-52
2022/08/17 11:29:58;;;;;;;6.22;5.55;;;;;;;33.28;46.73;100771.22;1657138;85;21058;-51
2022/08/17 11:32:49;;;;;;;6.35;5.40;;;;;;;33.28;47.04;100773.07;1662358;85;21563;-54
2022/08/17 11:35:30;;;;;;;6.45;5.85;;;;;;;33.28;46.93;100768.52;1680246;82;21034;-53
2022/08/17 11:38:39;;;;;;;5.78;5.28;;;;;;;33.29;47.09;100774.23;1683457;84;21514;-52
2022/08/17 11:41:37;;;;;;;6.35;5.85;;;;;;;33.27;47.25;100780.31;1673028;85;21069;-55
2022/08/17 11:44:21;;;;;;;7.78;5.95;;;;;;;33.21;47.33;100782.88;1667475;85;21054;-53
2022/08/17 11:53:06;;;;;;;5.78;5.22;;;;;;;33.28;47.20;100790.10;1607949;87;21075;-53
2022/08/17 11:55:42;;;;;;;5.95;5.28;;;;;;;33.31;47.07;100787.53;1582169;89;21047;-52
2022/08/17 11:58:40;;;;;;;5.62;5.20;;;;;;;33.34;47.21;100785.34;1602761;87;21604;-53
2022/08/17 12:01:12;;;;;;;6.55;5.53;;;;;;;33.36;47.20;100786.00;1534559;92;21608;-50
2022/08/17 12:03:42;;;;;;;5.50;5.10;;;;;;;33.37;45.98;100781.42;1517696;93;21042;-50
2022/08/17 12:06:16;;;;;;;5.42;4.92;;;;;;;33.35;45.72;100785.66;1522668;92;21550;-51
2022/08/17 12:08:51;;;;;;;4.97;4.58;;;;;;;33.30;46.22;100784.02;1519115;93;21113;-51
2022/08/17 12:11:40;;;;;;;6.65;5.28;;;;;;;33.25;45.26;100785.05;1518496;93;21161;-53
2022/08/17 12:14:06;;;;;;;6.75;5.15;;;;;;;33.22;45.37;100773.79;1524604;92;21072;-51
2022/08/17 12:16:33;;;;;;;5.12;4.72;;;;;;;33.19;45.71;100772.28;1522841;93;21119;-49
2022/08/17 12:19:01;;;;;;;5.97;5.42;;;;;;;33.20;45.69;100775.30;1519986;93;21142;-50
2022/08/17 12:21:54;;;;;;;5.22;4.78;;;;;;;33.18;45.99;100770.59;1528334;92;21080;-53
2022/08/17 12:24:40;;;;;;;5.58;5.08;;;;;;;33.17;46.10;100768.08;1538208;92;21097;-56
2022/08/17 12:27:08;;;;;;;4.85;4.45;;;;;;;33.13;45.92;100770.30;1540622;92;21136;-51
2022/08/17 12:29:35;;;;;;;5.20;4.70;;;;;;;33.09;46.16;100763.59;1543782;92;21593;-50
2022/08/17 12:32:04;;;;;;;4.28;3.95;;;;;;;33.07;45.96;100768.31;1538637;92;21072;-52
2022/08/17 12:34:38;;;;;;;5.50;4.33;;;;;;;33.06;45.54;100769.82;1551079;91;21117;-50
2022/08/17 12:37:23;;;;;;;6.90;4.65;;;;;;;33.02;45.28;100768.00;1572401;90;21080;-52
2022/08/17 12:39:59;;;;;;;4.92;4.53;;;;;;;32.97;45.52;100774.41;1556752;92;21143;-50
2022/08/17 12:42:36;;;;;;;4.90;4.40;;;;;;;32.91;45.76;100779.17;1559987;91;21089;-53
2022/08/17 12:45:11;;;;;;;4.78;4.28;;;;;;;32.89;45.56;100775.81;1483146;95;21158;-53